sensor_id;sensor_type;location;lat;lon;timestamp;pressure;altitude;pressure_sealevel;temperature;humidity
59417;BME280;45222;52.458;20.914;2023-09-18T00:01:09;100888.42;;;17.59;78.96
59417;BME280;45222;52.458;20.914;2023-09-18T00:04:52;100889.84;;;17.59;79.02
59417;BME280;45222;52.458;20.914;2023-09-18T00:08:35;100885.48;;;17.55;78.94
59417;BME280;45222;52.458;20.914;2023-09-18T00:12:18;100882.61;;;17.47;78.94
59417;BME280;45222;52.458;20.914;2023-09-18T00:16:02;100881.05;;;17.38;78.95
59417;BME280;45222;52.458;20.914;2023-09-18T00:19:45;100886.55;;;17.26;78.98
59417;BME280;45222;52.458;20.914;2023-09-18T00:23:28;100900.75;;;17.13;79.03
59417;BME280;45222;52.458;20.914;2023-09-18T00:27:11;100897.20;;;17.01;79.18
59417;BME280;45222;52.458;20.914;2023-09-18T00:30:54;100895.70;;;16.91;79.11
59417;BME280;45222;52.458;20.914;2023-09-18T00:34:37;100894.95;;;16.83;79.36
59417;BME280;45222;52.458;20.914;2023-09-18T00:38:20;100892.83;;;16.80;79.47
59417;BME280;45222;52.458;20.914;2023-09-18T00:42:03;100890.48;;;16.77;79.70
59417;BME280;45222;52.458;20.914;2023-09-18T00:45:47;100888.42;;;16.76;79.86
59417;BME280;45222;52.458;20.914;2023-09-18T00:49:31;100886.64;;;16.76;79.54
59417;BME280;45222;52.458;20.914;2023-09-18T00:53:14;100887.40;;;16.78;79.63
59417;BME280;45222;52.458;20.914;2023-09-18T00:56:59;100889.65;;;16.79;79.64
59417;BME280;45222;52.458;20.914;2023-09-18T01:00:42;100884.98;;;16.76;79.59
59417;BME280;45222;52.458;20.914;2023-09-18T01:04:26;100884.33;;;16.73;79.61
59417;BME280;45222;52.458;20.914;2023-09-18T01:08:09;100884.27;;;16.63;79.39
59417;BME280;45222;52.458;20.914;2023-09-18T01:11:54;100879.58;;;16.52;79.49
59417;BME280;45222;52.458;20.914;2023-09-18T01:15:38;100883.48;;;16.41;79.71
59417;BME280;45222;52.458;20.914;2023-09-18T01:19:35;100880.50;;;16.29;79.87
59417;BME280;45222;52.458;20.914;2023-09-18T01:23:18;100880.38;;;16.17;80.03
59417;BME280;45222;52.458;20.914;2023-09-18T01:27:01;100881.77;;;16.09;79.87
59417;BME280;45222;52.458;20.914;2023-09-18T01:30:44;100881.69;;;16.02;79.87
59417;BME280;45222;52.458;20.914;2023-09-18T01:34:28;100882.69;;;15.95;80.33
59417;BME280;45222;52.458;20.914;2023-09-18T01:38:15;100885.06;;;15.88;80.71
59417;BME280;45222;52.458;20.914;2023-09-18T01:42:00;100881.84;;;15.85;81.26
59417;BME280;45222;52.458;20.914;2023-09-18T01:45:45;100884.17;;;15.79;81.40
59417;BME280;45222;52.458;20.914;2023-09-18T01:49:30;100883.11;;;15.76;81.16
59417;BME280;45222;52.458;20.914;2023-09-18T01:53:15;100885.88;;;15.77;80.99
59417;BME280;45222;52.458;20.914;2023-09-18T01:56:59;100881.92;;;15.77;81.14
59417;BME280;45222;52.458;20.914;2023-09-18T02:00:43;100876.52;;;15.75;81.11
59417;BME280;45222;52.458;20.914;2023-09-18T02:04:27;100876.38;;;15.63;81.35
59417;BME280;45222;52.458;20.914;2023-09-18T02:08:12;100880.14;;;15.54;81.58
59417;BME280;45222;52.458;20.914;2023-09-18T02:11:56;100875.71;;;15.44;81.78
59417;BME280;45222;52.458;20.914;2023-09-18T02:15:41;100876.56;;;15.33;81.67
59417;BME280;45222;52.458;20.914;2023-09-18T02:19:25;100875.28;;;15.22;81.84
59417;BME280;45222;52.458;20.914;2023-09-18T02:23:09;100874.02;;;15.13;81.82
59417;BME280;45222;52.458;20.914;2023-09-18T02:26:53;100871.31;;;15.04;81.96
59417;BME280;45222;52.458;20.914;2023-09-18T02:30:38;100864.65;;;14.95;82.39
59417;BME280;45222;52.458;20.914;2023-09-18T02:34:22;100862.77;;;14.94;82.55
59417;BME280;45222;52.458;20.914;2023-09-18T02:38:06;100863.73;;;14.96;82.61
59417;BME280;45222;52.458;20.914;2023-09-18T02:41:50;100861.67;;;14.97;82.56
59417;BME280;45222;52.458;20.914;2023-09-18T02:45:35;100858.63;;;15.03;82.62
59417;BME280;45222;52.458;20.914;2023-09-18T02:49:19;100853.73;;;15.10;82.55
59417;BME280;45222;52.458;20.914;2023-09-18T02:53:05;100858.38;;;15.11;82.52
59417;BME280;45222;52.458;20.914;2023-09-18T02:56:49;100853.71;;;15.05;82.36
59417;BME280;45222;52.458;20.914;2023-09-18T03:00:34;100846.73;;;14.98;82.25
59417;BME280;45222;52.458;20.914;2023-09-18T03:04:18;100848.07;;;14.88;82.24
59417;BME280;45222;52.458;20.914;2023-09-18T03:08:04;100845.23;;;14.82;82.17
59417;BME280;45222;52.458;20.914;2023-09-18T03:11:48;100845.45;;;14.77;82.48
59417;BME280;45222;52.458;20.914;2023-09-18T03:15:32;100839.58;;;14.73;82.38
59417;BME280;45222;52.458;20.914;2023-09-18T03:19:17;100849.50;;;14.72;82.42
59417;BME280;45222;52.458;20.914;2023-09-18T03:23:01;100852.92;;;14.71;82.37
59417;BME280;45222;52.458;20.914;2023-09-18T03:26:45;100846.86;;;14.75;82.37
59417;BME280;45222;52.458;20.914;2023-09-18T03:30:30;100847.70;;;14.79;82.44
59417;BME280;45222;52.458;20.914;2023-09-18T03:34:14;100841.23;;;14.85;82.86
59417;BME280;45222;52.458;20.914;2023-09-18T03:37:58;100843.95;;;14.91;82.71
59417;BME280;45222;52.458;20.914;2023-09-18T03:41:43;100845.30;;;14.98;82.85
59417;BME280;45222;52.458;20.914;2023-09-18T03:45:27;100844.57;;;15.08;82.74
59417;BME280;45222;52.458;20.914;2023-09-18T03:49:12;100842.25;;;15.17;82.83
59417;BME280;45222;52.458;20.914;2023-09-18T03:52:57;100847.88;;;15.27;82.71
59417;BME280;45222;52.458;20.914;2023-09-18T03:56:41;100846.58;;;15.37;82.90
59417;BME280;45222;52.458;20.914;2023-09-18T04:00:25;100841.65;;;15.41;82.99
59417;BME280;45222;52.458;20.914;2023-09-18T04:04:09;100840.36;;;15.42;82.94
59417;BME280;45222;52.458;20.914;2023-09-18T04:07:54;100836.69;;;15.40;83.38
59417;BME280;45222;52.458;20.914;2023-09-18T04:11:38;100831.88;;;15.37;83.54
59417;BME280;45222;52.458;20.914;2023-09-18T04:15:22;100827.13;;;15.33;83.87
59417;BME280;45222;52.458;20.914;2023-09-18T04:19:06;100824.27;;;15.30;84.91
59417;BME280;45222;52.458;20.914;2023-09-18T04:26:55;100820.77;;;15.37;85.41
59417;BME280;45222;52.458;20.914;2023-09-18T04:30:39;100818.52;;;15.48;85.50
59417;BME280;45222;52.458;20.914;2023-09-18T04:34:26;100819.39;;;15.59;85.53
59417;BME280;45222;52.458;20.914;2023-09-18T04:38:10;100813.85;;;15.71;85.74
59417;BME280;45222;52.458;20.914;2023-09-18T04:41:54;100809.73;;;15.79;87.29
59417;BME280;45222;52.458;20.914;2023-09-18T04:45:38;100810.55;;;15.86;86.99
59417;BME280;45222;52.458;20.914;2023-09-18T04:49:22;100810.70;;;15.96;86.45
59417;BME280;45222;52.458;20.914;2023-09-18T04:53:07;100806.70;;;16.05;86.30
59417;BME280;45222;52.458;20.914;2023-09-18T04:56:52;100805.94;;;16.17;85.92
59417;BME280;45222;52.458;20.914;2023-09-18T05:00:36;100802.04;;;16.27;86.09
59417;BME280;45222;52.458;20.914;2023-09-18T05:04:20;100799.66;;;16.36;85.80
59417;BME280;45222;52.458;20.914;2023-09-18T05:08:05;100799.77;;;16.51;85.74
59417;BME280;45222;52.458;20.914;2023-09-18T05:11:50;100791.38;;;16.61;85.62
59417;BME280;45222;52.458;20.914;2023-09-18T05:15:35;100791.27;;;16.68;85.41
59417;BME280;45222;52.458;20.914;2023-09-18T05:19:19;100789.82;;;16.76;85.31
59417;BME280;45222;52.458;20.914;2023-09-18T05:23:03;100789.38;;;16.83;85.23
59417;BME280;45222;52.458;20.914;2023-09-18T05:26:47;100785.69;;;16.89;84.88
59417;BME280;45222;52.458;20.914;2023-09-18T05:30:32;100783.52;;;16.95;85.04
59417;BME280;45222;52.458;20.914;2023-09-18T05:34:17;100776.90;;;17.05;85.00
59417;BME280;45222;52.458;20.914;2023-09-18T05:38:01;100770.03;;;17.14;84.91
59417;BME280;45222;52.458;20.914;2023-09-18T05:41:46;100769.64;;;17.22;84.89
59417;BME280;45222;52.458;20.914;2023-09-18T05:45:31;100769.48;;;17.30;84.62
59417;BME280;45222;52.458;20.914;2023-09-18T05:49:16;100768.53;;;17.38;84.40
59417;BME280;45222;52.458;20.914;2023-09-18T05:53:00;100765.70;;;17.45;84.14
59417;BME280;45222;52.458;20.914;2023-09-18T05:56:47;100769.05;;;17.51;83.96
59417;BME280;45222;52.458;20.914;2023-09-18T06:00:31;100769.12;;;17.57;83.70
59417;BME280;45222;52.458;20.914;2023-09-18T06:04:16;100764.54;;;17.61;83.86
59417;BME280;45222;52.458;20.914;2023-09-18T06:08:00;100763.04;;;17.67;84.06
59417;BME280;45222;52.458;20.914;2023-09-18T06:11:46;100760.52;;;17.75;83.82
59417;BME280;45222;52.458;20.914;2023-09-18T06:15:30;100761.73;;;17.88;83.56
59417;BME280;45222;52.458;20.914;2023-09-18T06:19:15;100763.35;;;18.05;83.33
59417;BME280;45222;52.458;20.914;2023-09-18T06:23:00;100767.11;;;18.23;82.91
59417;BME280;45222;52.458;20.914;2023-09-18T06:26:44;100759.14;;;18.36;82.70
59417;BME280;45222;52.458;20.914;2023-09-18T06:30:29;100755.34;;;18.57;82.45
59417;BME280;45222;52.458;20.914;2023-09-18T06:34:14;100759.11;;;18.77;82.01
59417;BME280;45222;52.458;20.914;2023-09-18T06:37:58;100756.61;;;18.93;81.75
59417;BME280;45222;52.458;20.914;2023-09-18T06:41:43;100750.00;;;19.04;81.52
59417;BME280;45222;52.458;20.914;2023-09-18T06:45:27;100751.58;;;19.16;81.29
59417;BME280;45222;52.458;20.914;2023-09-18T06:49:11;100746.92;;;19.32;80.90
59417;BME280;45222;52.458;20.914;2023-09-18T06:52:55;100749.81;;;19.50;80.44
59417;BME280;45222;52.458;20.914;2023-09-18T06:56:40;100748.28;;;19.67;79.96
59417;BME280;45222;52.458;20.914;2023-09-18T07:00:25;100749.81;;;19.84;79.80
59417;BME280;45222;52.458;20.914;2023-09-18T07:04:09;100747.27;;;20.00;79.25
59417;BME280;45222;52.458;20.914;2023-09-18T07:07:53;100744.48;;;20.14;78.83
59417;BME280;45222;52.458;20.914;2023-09-18T07:11:38;100742.23;;;20.31;78.54
59417;BME280;45222;52.458;20.914;2023-09-18T07:15:22;100744.89;;;20.46;78.27
59417;BME280;45222;52.458;20.914;2023-09-18T07:19:06;100743.12;;;20.63;78.03
59417;BME280;45222;52.458;20.914;2023-09-18T07:22:54;100743.13;;;20.86;77.54
59417;BME280;45222;52.458;20.914;2023-09-18T07:26:39;100739.91;;;21.11;77.14
59417;BME280;45222;52.458;20.914;2023-09-18T07:30:23;100741.45;;;21.37;76.76
59417;BME280;45222;52.458;20.914;2023-09-18T07:34:10;100736.69;;;21.67;76.35
59417;BME280;45222;52.458;20.914;2023-09-18T07:37:54;100738.10;;;21.93;75.02
59417;BME280;45222;52.458;20.914;2023-09-18T07:41:38;100743.91;;;22.07;74.21
59417;BME280;45222;52.458;20.914;2023-09-18T07:45:23;100738.23;;;22.18;74.20
59417;BME280;45222;52.458;20.914;2023-09-18T07:49:07;100737.30;;;22.36;73.72
59417;BME280;45222;52.458;20.914;2023-09-18T07:52:51;100726.85;;;22.53;72.92
59417;BME280;45222;52.458;20.914;2023-09-18T07:56:36;100727.60;;;22.67;72.87
59417;BME280;45222;52.458;20.914;2023-09-18T08:00:20;100729.57;;;22.86;72.61
59417;BME280;45222;52.458;20.914;2023-09-18T08:04:06;100723.98;;;23.07;72.16
59417;BME280;45222;52.458;20.914;2023-09-18T08:07:50;100720.60;;;23.27;71.96
59417;BME280;45222;52.458;20.914;2023-09-18T08:11:35;100723.48;;;23.48;71.78
59417;BME280;45222;52.458;20.914;2023-09-18T08:15:20;100716.38;;;23.66;69.67
59417;BME280;45222;52.458;20.914;2023-09-18T08:19:04;100715.30;;;23.80;68.81
59417;BME280;45222;52.458;20.914;2023-09-18T08:22:48;100711.95;;;23.96;68.15
59417;BME280;45222;52.458;20.914;2023-09-18T08:26:34;100705.95;;;24.11;68.19
59417;BME280;45222;52.458;20.914;2023-09-18T08:30:18;100706.66;;;24.22;66.01
59417;BME280;45222;52.458;20.914;2023-09-18T08:34:04;100703.97;;;24.39;67.54
59417;BME280;45222;52.458;20.914;2023-09-18T08:37:48;100700.79;;;24.60;66.74
59417;BME280;45222;52.458;20.914;2023-09-18T08:41:32;100692.20;;;24.80;65.56
59417;BME280;45222;52.458;20.914;2023-09-18T08:45:19;100694.23;;;24.96;65.52
59417;BME280;45222;52.458;20.914;2023-09-18T08:49:05;100684.77;;;25.09;65.42
59417;BME280;45222;52.458;20.914;2023-09-18T08:52:51;100686.01;;;25.24;64.40
59417;BME280;45222;52.458;20.914;2023-09-18T08:56:35;100683.09;;;25.38;64.70
59417;BME280;45222;52.458;20.914;2023-09-18T09:00:20;100677.72;;;25.50;64.20
59417;BME280;45222;52.458;20.914;2023-09-18T09:04:05;100674.60;;;25.64;64.88
59417;BME280;45222;52.458;20.914;2023-09-18T09:07:49;100674.91;;;25.74;63.04
59417;BME280;45222;52.458;20.914;2023-09-18T09:11:33;100670.29;;;25.78;60.69
59417;BME280;45222;52.458;20.914;2023-09-18T09:15:18;100666.38;;;25.88;61.09
59417;BME280;45222;52.458;20.914;2023-09-18T09:19:02;100665.85;;;26.07;61.45
59417;BME280;45222;52.458;20.914;2023-09-18T09:22:46;100661.73;;;26.21;60.02
59417;BME280;45222;52.458;20.914;2023-09-18T09:26:31;100662.43;;;26.33;57.80
59417;BME280;45222;52.458;20.914;2023-09-18T09:30:18;100655.71;;;26.48;58.48
59417;BME280;45222;52.458;20.914;2023-09-18T09:34:03;100654.73;;;26.62;58.02
59417;BME280;45222;52.458;20.914;2023-09-18T09:37:48;100645.27;;;26.74;58.42
59417;BME280;45222;52.458;20.914;2023-09-18T09:41:34;100640.44;;;26.86;56.64
59417;BME280;45222;52.458;20.914;2023-09-18T09:45:19;100640.82;;;26.95;54.74
59417;BME280;45222;52.458;20.914;2023-09-18T09:49:04;100637.45;;;27.07;55.62
59417;BME280;45222;52.458;20.914;2023-09-18T09:52:49;100637.90;;;27.22;53.69
59417;BME280;45222;52.458;20.914;2023-09-18T10:00:36;100634.42;;;27.50;52.14
59417;BME280;45222;52.458;20.914;2023-09-18T10:04:27;100633.61;;;27.54;50.75
59417;BME280;45222;52.458;20.914;2023-09-18T10:08:12;100626.95;;;27.66;53.01
59417;BME280;45222;52.458;20.914;2023-09-18T10:11:58;100623.14;;;27.78;52.00
59417;BME280;45222;52.458;20.914;2023-09-18T10:15:43;100620.40;;;27.96;50.12
59417;BME280;45222;52.458;20.914;2023-09-18T10:19:29;100611.02;;;28.11;49.98
59417;BME280;45222;52.458;20.914;2023-09-18T10:23:21;100604.92;;;28.28;51.58
59417;BME280;45222;52.458;20.914;2023-09-18T10:27:09;100594.14;;;28.34;49.74
59417;BME280;45222;52.458;20.914;2023-09-18T10:30:57;100590.87;;;28.30;49.70
59417;BME280;45222;52.458;20.914;2023-09-18T10:34:42;100586.95;;;28.39;50.24
59417;BME280;45222;52.458;20.914;2023-09-18T10:38:27;100580.39;;;28.55;49.30
59417;BME280;45222;52.458;20.914;2023-09-18T10:42:11;100575.64;;;28.72;48.89
59417;BME280;45222;52.458;20.914;2023-09-18T10:45:56;100573.38;;;28.92;47.91
59417;BME280;45222;52.458;20.914;2023-09-18T10:49:40;100567.52;;;29.08;47.78
59417;BME280;45222;52.458;20.914;2023-09-18T10:53:25;100566.80;;;29.24;48.38
59417;BME280;45222;52.458;20.914;2023-09-18T10:57:10;100562.23;;;29.36;46.13
59417;BME280;45222;52.458;20.914;2023-09-18T11:00:54;100555.38;;;29.47;47.93
59417;BME280;45222;52.458;20.914;2023-09-18T11:04:41;100552.06;;;29.59;47.59
59417;BME280;45222;52.458;20.914;2023-09-18T11:08:29;100550.81;;;29.70;46.03
59417;BME280;45222;52.458;20.914;2023-09-18T11:12:16;100544.64;;;29.67;45.37
59417;BME280;45222;52.458;20.914;2023-09-18T11:16:01;100544.11;;;29.51;47.03
59417;BME280;45222;52.458;20.914;2023-09-18T11:19:46;100547.68;;;29.47;45.15
59417;BME280;45222;52.458;20.914;2023-09-18T11:23:34;100547.27;;;29.56;45.70
59417;BME280;45222;52.458;20.914;2023-09-18T11:27:24;100541.92;;;29.65;45.43
59417;BME280;45222;52.458;20.914;2023-09-18T11:31:08;100533.53;;;29.58;45.79
59417;BME280;45222;52.458;20.914;2023-09-18T11:35:04;100533.89;;;29.47;45.24
59417;BME280;45222;52.458;20.914;2023-09-18T11:38:53;100534.23;;;29.49;45.66
59417;BME280;45222;52.458;20.914;2023-09-18T11:42:37;100536.98;;;29.56;46.05
59417;BME280;45222;52.458;20.914;2023-09-18T11:46:21;100531.44;;;29.75;45.34
59417;BME280;45222;52.458;20.914;2023-09-18T11:50:06;100530.32;;;30.00;43.73
59417;BME280;45222;52.458;20.914;2023-09-18T11:53:54;100529.65;;;30.21;41.94
59417;BME280;45222;52.458;20.914;2023-09-18T11:57:39;100523.73;;;30.36;41.59
59417;BME280;45222;52.458;20.914;2023-09-18T12:01:27;100529.58;;;30.22;42.73
59417;BME280;45222;52.458;20.914;2023-09-18T12:05:13;100530.30;;;30.17;42.70
59417;BME280;45222;52.458;20.914;2023-09-18T12:08:57;100525.58;;;30.13;43.34
59417;BME280;45222;52.458;20.914;2023-09-18T12:12:42;100521.52;;;30.14;43.02
59417;BME280;45222;52.458;20.914;2023-09-18T12:16:26;100514.17;;;30.23;43.54
59417;BME280;45222;52.458;20.914;2023-09-18T12:20:15;100509.88;;;30.42;41.56
59417;BME280;45222;52.458;20.914;2023-09-18T12:24:01;100506.55;;;30.53;40.19
59417;BME280;45222;52.458;20.914;2023-09-18T12:27:51;100503.22;;;30.72;42.12
59417;BME280;45222;52.458;20.914;2023-09-18T12:31:36;100501.67;;;30.85;40.92
59417;BME280;45222;52.458;20.914;2023-09-18T12:35:21;100493.02;;;30.99;39.55
59417;BME280;45222;52.458;20.914;2023-09-18T12:39:06;100494.21;;;31.22;39.90
59417;BME280;45222;52.458;20.914;2023-09-18T12:42:50;100482.84;;;31.26;39.39
59417;BME280;45222;52.458;20.914;2023-09-18T12:46:35;100480.90;;;30.77;38.99
59417;BME280;45222;52.458;20.914;2023-09-18T12:50:20;100477.65;;;30.41;40.32
59417;BME280;45222;52.458;20.914;2023-09-18T12:54:04;100473.92;;;30.31;41.14
59417;BME280;45222;52.458;20.914;2023-09-18T12:57:50;100472.66;;;30.24;40.83
59417;BME280;45222;52.458;20.914;2023-09-18T13:01:34;100466.70;;;30.19;40.09
59417;BME280;45222;52.458;20.914;2023-09-18T13:05:21;100459.42;;;30.12;39.94
59417;BME280;45222;52.458;20.914;2023-09-18T13:09:18;100455.67;;;30.14;40.44
59417;BME280;45222;52.458;20.914;2023-09-18T13:13:04;100446.84;;;30.33;40.07
59417;BME280;45222;52.458;20.914;2023-09-18T13:16:49;100448.45;;;30.50;39.35
59417;BME280;45222;52.458;20.914;2023-09-18T13:20:33;100442.61;;;30.66;38.62
59417;BME280;45222;52.458;20.914;2023-09-18T13:24:27;100440.45;;;30.90;38.85
59417;BME280;45222;52.458;20.914;2023-09-18T13:28:12;100434.18;;;31.20;38.36
59417;BME280;45222;52.458;20.914;2023-09-18T13:31:56;100424.67;;;31.45;38.35
59417;BME280;45222;52.458;20.914;2023-09-18T13:35:42;100415.60;;;31.68;39.29
59417;BME280;45222;52.458;20.914;2023-09-18T13:39:26;100409.22;;;31.67;39.71
59417;BME280;45222;52.458;20.914;2023-09-18T13:43:10;100403.89;;;31.56;40.53
59417;BME280;45222;52.458;20.914;2023-09-18T13:46:54;100397.38;;;31.50;39.77
59417;BME280;45222;52.458;20.914;2023-09-18T13:50:39;100392.83;;;31.49;40.52
59417;BME280;45222;52.458;20.914;2023-09-18T13:54:23;100392.31;;;31.16;40.86
59417;BME280;45222;52.458;20.914;2023-09-18T13:58:07;100386.23;;;30.93;41.41
59417;BME280;45222;52.458;20.914;2023-09-18T14:01:52;100375.34;;;30.99;41.62
59417;BME280;45222;52.458;20.914;2023-09-18T14:05:36;100372.55;;;30.96;41.22
59417;BME280;45222;52.458;20.914;2023-09-18T14:09:21;100378.75;;;30.84;41.68
59417;BME280;45222;52.458;20.914;2023-09-18T14:13:05;100376.63;;;30.80;42.22
59417;BME280;45222;52.458;20.914;2023-09-18T14:16:49;100371.45;;;30.73;41.86
59417;BME280;45222;52.458;20.914;2023-09-18T14:20:33;100362.14;;;30.67;41.64
59417;BME280;45222;52.458;20.914;2023-09-18T14:24:18;100355.38;;;30.56;41.80
59417;BME280;45222;52.458;20.914;2023-09-18T14:28:06;100351.71;;;30.46;41.81
59417;BME280;45222;52.458;20.914;2023-09-18T14:31:50;100349.29;;;30.44;41.99
59417;BME280;45222;52.458;20.914;2023-09-18T14:35:34;100349.92;;;30.32;41.82
59417;BME280;45222;52.458;20.914;2023-09-18T14:39:19;100352.73;;;30.34;42.19
59417;BME280;45222;52.458;20.914;2023-09-18T14:43:04;100354.48;;;30.36;42.23
59417;BME280;45222;52.458;20.914;2023-09-18T14:46:48;100348.15;;;30.33;42.30
59417;BME280;45222;52.458;20.914;2023-09-18T14:50:34;100341.44;;;30.25;42.32
59417;BME280;45222;52.458;20.914;2023-09-18T14:54:18;100338.71;;;30.08;42.42
59417;BME280;45222;52.458;20.914;2023-09-18T14:58:02;100330.69;;;29.72;42.24
59417;BME280;45222;52.458;20.914;2023-09-18T15:01:46;100327.14;;;29.31;42.17
59417;BME280;45222;52.458;20.914;2023-09-18T15:05:32;100330.63;;;28.99;43.09
59417;BME280;45222;52.458;20.914;2023-09-18T15:09:16;100332.35;;;28.75;43.33
59417;BME280;45222;52.458;20.914;2023-09-18T15:13:03;100327.39;;;28.55;43.17
59417;BME280;45222;52.458;20.914;2023-09-18T15:16:47;100331.61;;;28.31;43.32
59417;BME280;45222;52.458;20.914;2023-09-18T15:20:32;100327.34;;;28.05;44.15
59417;BME280;45222;52.458;20.914;2023-09-18T15:24:16;100327.62;;;27.75;44.43
59417;BME280;45222;52.458;20.914;2023-09-18T15:28:02;100325.19;;;27.50;45.01
59417;BME280;45222;52.458;20.914;2023-09-18T15:31:46;100320.52;;;27.37;45.37
59417;BME280;45222;52.458;20.914;2023-09-18T15:35:31;100315.48;;;27.24;45.61
59417;BME280;45222;52.458;20.914;2023-09-18T15:39:17;100312.29;;;27.20;45.85
59417;BME280;45222;52.458;20.914;2023-09-18T15:43:01;100307.64;;;27.16;45.95
59417;BME280;45222;52.458;20.914;2023-09-18T15:46:46;100304.52;;;27.04;46.02
59417;BME280;45222;52.458;20.914;2023-09-18T15:50:30;100301.11;;;26.86;46.26
59417;BME280;45222;52.458;20.914;2023-09-18T15:54:14;100302.58;;;26.67;46.82
59417;BME280;45222;52.458;20.914;2023-09-18T15:58:00;100302.09;;;26.48;46.98
59417;BME280;45222;52.458;20.914;2023-09-18T16:01:44;100295.08;;;26.27;47.20
59417;BME280;45222;52.458;20.914;2023-09-18T16:05:28;100301.58;;;26.05;47.74
59417;BME280;45222;52.458;20.914;2023-09-18T16:09:13;100300.30;;;25.83;48.10
59417;BME280;45222;52.458;20.914;2023-09-18T16:13:00;100295.31;;;25.64;48.38
59417;BME280;45222;52.458;20.914;2023-09-18T16:16:46;100295.69;;;25.46;48.63
59417;BME280;45222;52.458;20.914;2023-09-18T16:20:30;100294.84;;;25.29;48.95
59417;BME280;45222;52.458;20.914;2023-09-18T16:24:15;100290.52;;;25.12;49.41
59417;BME280;45222;52.458;20.914;2023-09-18T16:28:00;100283.28;;;24.94;49.86
59417;BME280;45222;52.458;20.914;2023-09-18T16:31:47;100276.58;;;24.74;50.23
59417;BME280;45222;52.458;20.914;2023-09-18T16:35:31;100270.95;;;24.53;50.50
59417;BME280;45222;52.458;20.914;2023-09-18T16:39:15;100278.05;;;24.37;50.84
59417;BME280;45222;52.458;20.914;2023-09-18T16:43:00;100276.52;;;24.20;51.40
59417;BME280;45222;52.458;20.914;2023-09-18T16:46:44;100275.98;;;24.05;51.73
59417;BME280;45222;52.458;20.914;2023-09-18T16:50:29;100274.63;;;23.88;52.22
59417;BME280;45222;52.458;20.914;2023-09-18T16:54:13;100273.00;;;23.69;52.81
59417;BME280;45222;52.458;20.914;2023-09-18T16:57:57;100271.04;;;23.50;53.23
59417;BME280;45222;52.458;20.914;2023-09-18T17:01:43;100265.58;;;23.31;53.77
59417;BME280;45222;52.458;20.914;2023-09-18T17:05:27;100264.42;;;23.12;54.36
59417;BME280;45222;52.458;20.914;2023-09-18T17:09:12;100259.65;;;22.91;54.83
59417;BME280;45222;52.458;20.914;2023-09-18T17:12:56;100256.17;;;22.70;55.22
59417;BME280;45222;52.458;20.914;2023-09-18T17:16:40;100252.13;;;22.47;55.81
59417;BME280;45222;52.458;20.914;2023-09-18T17:20:24;100251.21;;;22.25;56.03
59417;BME280;45222;52.458;20.914;2023-09-18T17:24:09;100255.84;;;22.10;56.89
59417;BME280;45222;52.458;20.914;2023-09-18T17:27:53;100256.88;;;21.95;57.20
59417;BME280;45222;52.458;20.914;2023-09-18T17:31:39;100252.28;;;21.81;57.62
59417;BME280;45222;52.458;20.914;2023-09-18T17:35:24;100253.71;;;21.68;58.13
59417;BME280;45222;52.458;20.914;2023-09-18T17:39:08;100253.53;;;21.56;58.38
59417;BME280;45222;52.458;20.914;2023-09-18T17:42:53;100251.96;;;21.48;58.62
59417;BME280;45222;52.458;20.914;2023-09-18T17:46:38;100251.13;;;21.40;58.78
59417;BME280;45222;52.458;20.914;2023-09-18T17:50:23;100250.38;;;21.33;58.97
59417;BME280;45222;52.458;20.914;2023-09-18T17:54:08;100252.91;;;21.25;60.31
59417;BME280;45222;52.458;20.914;2023-09-18T17:57:52;100255.38;;;21.14;60.80
59417;BME280;45222;52.458;20.914;2023-09-18T18:01:37;100250.61;;;21.04;60.51
59417;BME280;45222;52.458;20.914;2023-09-18T18:05:21;100253.85;;;20.96;60.58
59417;BME280;45222;52.458;20.914;2023-09-18T18:09:07;100253.26;;;20.89;60.64
59417;BME280;45222;52.458;20.914;2023-09-18T18:12:52;100247.94;;;20.82;61.20
59417;BME280;45222;52.458;20.914;2023-09-18T18:16:39;100250.63;;;20.72;62.14
59417;BME280;45222;52.458;20.914;2023-09-18T18:20:23;100247.31;;;20.63;62.50
59417;BME280;45222;52.458;20.914;2023-09-18T18:24:11;100242.39;;;20.53;62.95
59417;BME280;45222;52.458;20.914;2023-09-18T18:27:57;100240.11;;;20.43;63.82
59417;BME280;45222;52.458;20.914;2023-09-18T18:31:41;100242.69;;;20.33;64.41
59417;BME280;45222;52.458;20.914;2023-09-18T18:35:27;100242.89;;;20.24;64.57
59417;BME280;45222;52.458;20.914;2023-09-18T18:39:11;100244.38;;;20.18;64.52
59417;BME280;45222;52.458;20.914;2023-09-18T18:42:55;100242.06;;;20.12;64.31
59417;BME280;45222;52.458;20.914;2023-09-18T18:46:40;100235.73;;;20.08;64.24
59417;BME280;45222;52.458;20.914;2023-09-18T18:50:24;100238.04;;;20.06;64.87
59417;BME280;45222;52.458;20.914;2023-09-18T18:54:08;100239.15;;;20.02;65.44
59417;BME280;45222;52.458;20.914;2023-09-18T18:57:52;100237.67;;;19.96;65.59
59417;BME280;45222;52.458;20.914;2023-09-18T19:01:37;100235.54;;;19.90;66.67
59417;BME280;45222;52.458;20.914;2023-09-18T19:05:23;100229.68;;;19.82;66.52
59417;BME280;45222;52.458;20.914;2023-09-18T19:09:07;100230.89;;;19.77;66.18
59417;BME280;45222;52.458;20.914;2023-09-18T19:12:53;100226.18;;;19.73;66.15
59417;BME280;45222;52.458;20.914;2023-09-18T19:16:40;100224.54;;;19.71;66.20
59417;BME280;45222;52.458;20.914;2023-09-18T19:20:25;100227.27;;;19.71;66.57
59417;BME280;45222;52.458;20.914;2023-09-18T19:24:10;100223.48;;;19.71;66.80
59417;BME280;45222;52.458;20.914;2023-09-18T19:27:55;100225.91;;;19.72;67.08